Time;durP1;ratioP1;P1;durP2;ratioP2;P2;SDS_P1;SDS_P2;PMS_P1;PMS_P2;Temp;Humidity;BMP_temperature;BMP_pressure;BME280_temperature;BME280_humidity;BME280_pressure;Samples;Min_cycle;Max_cycle;Signal;HPM_P1;HPM_P2
2021/09/24 00:00:37;;;;;;;2.57;1.87;;;;;;;-143.37;100.00;65745.06;5051751;28;20699;-75
2021/09/24 00:03:03;;;;;;;3.13;2.30;;;;;;;-143.37;100.00;65745.06;5053041;28;20205;-77
2021/09/24 00:05:30;;;;;;;5.50;2.60;;;;;;;-143.37;100.00;65745.06;5052638;28;20237;-76
2021/09/24 00:07:57;;;;;;;3.63;2.30;;;;;;;-143.37;100.00;65745.06;5053268;28;20229;-75
2021/09/24 00:10:23;;;;;;;3.37;2.30;;;;;;;-143.37;100.00;65745.06;5052906;28;20255;-76
2021/09/24 00:12:49;;;;;;;3.83;2.33;;;;;;;-143.37;100.00;65745.06;5051975;28;20210;-76
2021/09/24 00:15:18;;;;;;;5.67;2.37;;;;;;;-143.37;100.00;65745.06;5051888;28;20279;-76
2021/09/24 00:17:45;;;;;;;3.70;2.20;;;;;;;-143.37;100.00;65745.06;5052411;28;20609;-74
2021/09/24 00:20:13;;;;;;;2.93;2.03;;;;;;;-143.37;100.00;65745.06;5052860;28;20299;-76
2021/09/24 00:22:42;;;;;;;3.13;2.07;;;;;;;-143.37;100.00;65745.06;5052822;28;20598;-75
2021/09/24 00:25:10;;;;;;;4.17;2.63;;;;;;;-143.37;100.00;65745.06;5052068;28;20209;-76
2021/09/24 00:27:37;;;;;;;3.27;2.20;;;;;;;-143.37;100.00;65745.06;5051628;28;20209;-74
2021/09/24 00:30:05;;;;;;;3.30;2.57;;;;;;;-143.37;100.00;65745.06;5052472;28;20206;-75
2021/09/24 00:32:32;;;;;;;3.07;2.33;;;;;;;-143.37;100.00;65745.06;5052868;28;20214;-76
2021/09/24 00:34:59;;;;;;;3.60;2.27;;;;;;;-143.37;100.00;65745.06;5071320;28;20237;-76
2021/09/24 00:37:25;;;;;;;6.33;2.40;;;;;;;-143.37;100.00;65745.06;5071982;28;20577;-75
2021/09/24 00:39:52;;;;;;;4.33;2.40;;;;;;;-143.37;100.00;65745.06;5070960;28;20225;-75
2021/09/24 00:42:19;;;;;;;4.50;2.13;;;;;;;-143.37;100.00;65745.06;5071990;28;20662;-77
2021/09/24 00:44:48;;;;;;;3.07;2.00;;;;;;;-143.37;100.00;65745.06;5071278;28;20221;-77
2021/09/24 00:47:16;;;;;;;3.03;1.80;;;;;;;-143.37;100.00;65745.06;5071763;28;20225;-77
2021/09/24 00:49:44;;;;;;;3.83;2.03;;;;;;;-143.37;100.00;65745.06;5071931;28;20209;-76
2021/09/24 00:52:10;;;;;;;2.10;1.83;;;;;;;-143.37;100.00;65745.06;5071871;28;20212;-76
2021/09/24 00:54:38;;;;;;;4.30;2.63;;;;;;;-143.37;100.00;65745.06;5071788;28;20205;-75
2021/09/24 00:57:06;;;;;;;2.97;2.20;;;;;;;-143.37;100.00;65745.06;5070430;28;20229;-75
2021/09/24 00:59:34;;;;;;;4.47;2.37;;;;;;;-143.37;100.00;65745.06;5071440;28;20271;-75
2021/09/24 01:34:23;;;;;;;4.60;2.60;;;;;;;-143.37;100.00;65745.06;5108968;27;20525;-76
2021/09/24 01:36:49;;;;;;;3.93;2.80;;;;;;;-143.37;100.00;65745.06;5109034;28;20228;-75
2021/09/24 01:39:16;;;;;;;3.80;2.47;;;;;;;-143.37;100.00;65745.06;5109081;28;20249;-75
2021/09/24 01:41:47;;;;;;;4.10;2.37;;;;;;;-143.37;100.00;65745.06;5109486;28;20227;-75
2021/09/24 01:44:14;;;;;;;7.10;2.70;;;;;;;-143.37;100.00;65745.06;5104539;28;20269;-76
2021/09/24 01:46:44;;;;;;;5.93;2.73;;;;;;;-143.37;100.00;65745.06;5088146;28;20277;-76
2021/09/24 01:49:12;;;;;;;4.07;2.80;;;;;;;-143.37;100.00;65745.06;5068770;28;20229;-76
2021/09/24 01:51:41;;;;;;;4.63;2.77;;;;;;;-143.37;100.00;65745.06;5068557;28;20278;-75
2021/09/24 01:54:10;;;;;;;3.00;2.33;;;;;;;-143.37;100.00;65745.06;5068078;28;20229;-76
2021/09/24 01:56:37;;;;;;;4.00;2.60;;;;;;;-143.37;100.00;65745.06;5080449;28;20220;-76
2021/09/24 01:59:04;;;;;;;3.87;2.70;;;;;;;-143.37;100.00;65745.06;5108921;28;20265;-75
2021/09/24 02:01:31;;;;;;;3.50;2.53;;;;;;;-143.37;100.00;65745.06;5108818;28;20633;-76
2021/09/24 02:03:58;;;;;;;3.97;2.67;;;;;;;-143.37;100.00;65745.06;5108347;28;20200;-75
2021/09/24 02:06:25;;;;;;;4.03;2.70;;;;;;;-143.37;100.00;65745.06;5108050;28;20259;-75
2021/09/24 02:08:52;;;;;;;4.37;3.03;;;;;;;-143.37;100.00;65745.06;5108688;28;20226;-76
2021/09/24 02:11:18;;;;;;;4.07;2.87;;;;;;;-143.37;100.00;65745.06;5092341;28;20228;-76
2021/09/24 02:13:45;;;;;;;4.87;3.17;;;;;;;-143.37;100.00;65745.06;5087884;28;20275;-75
2021/09/24 02:16:12;;;;;;;4.67;3.23;;;;;;;-143.37;100.00;65745.06;5087911;28;20268;-77
2021/09/24 02:18:39;;;;;;;7.97;3.43;;;;;;;-143.37;100.00;65745.06;5086981;28;20228;-76
2021/09/24 02:21:07;;;;;;;5.40;3.10;;;;;;;-143.37;100.00;65745.06;5087830;28;20247;-75
2021/09/24 02:23:35;;;;;;;6.10;3.60;;;;;;;-143.37;100.00;65745.06;5088040;28;20418;-75
2021/09/24 02:26:03;;;;;;;5.40;3.60;;;;;;;-143.37;100.00;65745.06;5087817;28;20263;-75
2021/09/24 02:28:30;;;;;;;5.67;3.50;;;;;;;-143.37;100.00;65745.06;5087805;28;20731;-75
2021/09/24 02:30:57;;;;;;;5.23;3.33;;;;;;;-143.37;100.00;65745.06;5087980;28;20201;-75
2021/09/24 02:33:24;;;;;;;6.27;3.37;;;;;;;-143.37;100.00;65745.06;5095315;28;20228;-75
2021/09/24 02:35:50;;;;;;;5.43;3.67;;;;;;;-143.37;100.00;65745.06;5107678;28;20224;-74
2021/09/24 02:38:17;;;;;;;7.80;3.30;;;;;;;-143.37;100.00;65745.06;5108087;28;20695;-74
2021/09/24 02:40:44;;;;;;;4.90;3.30;;;;;;;-143.37;100.00;65745.06;5089821;28;20611;-76
2021/09/24 02:43:10;;;;;;;6.50;3.60;;;;;;;-143.37;100.00;65745.06;5067130;28;20236;-75
2021/09/24 02:45:37;;;;;;;4.77;2.87;;;;;;;-143.37;100.00;65745.06;5054402;28;20287;-74
2021/09/24 02:48:04;;;;;;;4.20;3.00;;;;;;;-143.37;100.00;65745.06;5053944;28;20210;-75
2021/09/24 02:50:30;;;;;;;4.80;3.20;;;;;;;-143.37;100.00;65745.06;5054007;28;20344;-76
2021/09/24 02:52:57;;;;;;;5.33;3.50;;;;;;;-143.37;100.00;65745.06;5053968;28;20221;-76
2021/09/24 02:55:23;;;;;;;5.73;3.20;;;;;;;-143.37;100.00;65745.06;5053140;28;20261;-75
2021/09/24 02:57:50;;;;;;;5.63;3.47;;;;;;;-143.37;100.00;65745.06;5086564;28;20240;-75
2021/09/24 03:00:17;;;;;;;5.20;3.33;;;;;;;-143.37;100.00;65745.06;5094158;28;20262;-75
2021/09/24 03:02:43;;;;;;;7.73;3.37;;;;;;;-143.37;100.00;65745.06;5093937;28;20247;-75
2021/09/24 03:05:11;;;;;;;4.93;3.20;;;;;;;-143.37;100.00;65745.06;5093078;28;20208;-74
2021/09/24 03:07:38;;;;;;;5.47;3.40;;;;;;;-143.37;100.00;65745.06;5094088;28;20205;-75
2021/09/24 03:10:05;;;;;;;4.27;3.33;;;;;;;-143.37;100.00;65745.06;5089213;28;20255;-74
2021/09/24 03:12:32;;;;;;;7.70;3.23;;;;;;;-143.37;100.00;65745.06;5078564;28;20727;-75
2021/09/24 03:14:59;;;;;;;4.83;3.60;;;;;;;-143.37;100.00;65745.06;5077442;28;20209;-75
2021/09/24 03:17:25;;;;;;;5.33;3.57;;;;;;;-143.37;100.00;65745.06;5074599;28;20217;-75
2021/09/24 03:19:52;;;;;;;7.10;3.20;;;;;;;-143.37;100.00;65745.06;5073428;28;20661;-76
2021/09/24 03:22:18;;;;;;;5.90;3.20;;;;;;;-143.37;100.00;65745.06;5073638;28;20671;-76
2021/09/24 03:24:45;;;;;;;5.13;3.10;;;;;;;-143.37;100.00;65745.06;5072810;28;20205;-75
2021/09/24 03:27:13;;;;;;;5.20;3.30;;;;;;;-143.37;100.00;65745.06;5073188;28;20256;-74
2021/09/24 03:29:40;;;;;;;4.87;3.30;;;;;;;-143.37;100.00;65745.06;5073109;28;20201;-74
2021/09/24 03:32:07;;;;;;;5.07;2.87;;;;;;;-143.37;100.00;65745.06;5073331;28;20266;-75
2021/09/24 03:34:34;;;;;;;4.47;3.17;;;;;;;-143.37;100.00;65745.06;5090654;28;20270;-74
2021/09/24 03:37:00;;;;;;;6.13;3.50;;;;;;;-143.37;100.00;65745.06;5091761;28;20270;-74
2021/09/24 03:39:27;;;;;;;5.87;3.03;;;;;;;-143.37;100.00;65745.06;5093266;28;20731;-77
2021/09/24 03:41:54;;;;;;;6.83;3.73;;;;;;;-143.37;100.00;65745.06;5093290;28;20205;-76
2021/09/24 03:44:22;;;;;;;5.10;3.10;;;;;;;-143.37;100.00;65745.06;5092765;28;20254;-75
2021/09/24 03:46:48;;;;;;;4.33;3.03;;;;;;;-143.37;100.00;65745.06;5093073;28;20229;-75
2021/09/24 03:49:15;;;;;;;4.57;2.77;;;;;;;-143.37;100.00;65745.06;5093134;28;20208;-76
2021/09/24 03:51:41;;;;;;;4.27;2.90;;;;;;;-143.37;100.00;65745.06;5093057;28;20729;-75
2021/09/24 03:54:08;;;;;;;5.23;3.47;;;;;;;-143.37;100.00;65745.06;5092686;28;20252;-76
2021/09/24 03:56:35;;;;;;;5.00;2.97;;;;;;;-143.37;100.00;65745.06;5091479;28;20248;-75
2021/09/24 03:59:01;;;;;;;4.90;3.53;;;;;;;-143.37;100.00;65745.06;5093140;28;20551;-75
2021/09/24 04:01:28;;;;;;;5.40;3.60;;;;;;;-143.37;100.00;65745.06;5092929;28;20244;-74
2021/09/24 04:03:55;;;;;;;6.03;3.30;;;;;;;-143.37;100.00;65745.06;5092854;28;20204;-74
2021/09/24 04:06:21;;;;;;;4.87;2.80;;;;;;;-143.37;100.00;65745.06;5092353;28;20301;-76
2021/09/24 04:08:48;;;;;;;6.00;3.17;;;;;;;-143.37;100.00;65745.06;5092741;28;20734;-76
2021/09/24 04:11:14;;;;;;;8.63;2.87;;;;;;;-143.37;100.00;65745.06;5076939;28;20650;-77
2021/09/24 04:13:41;;;;;;;5.13;2.87;;;;;;;-143.37;100.00;65745.06;5072357;28;20241;-76
2021/09/24 04:16:07;;;;;;;6.67;3.30;;;;;;;-143.37;100.00;65745.06;5070473;28;20644;-77
2021/09/24 04:18:34;;;;;;;4.53;2.57;;;;;;;-143.37;100.00;65745.06;5072440;28;20233;-75
2021/09/24 04:21:00;;;;;;;4.13;2.97;;;;;;;-143.37;100.00;65745.06;5072248;28;20631;-76
2021/09/24 04:23:27;;;;;;;5.10;2.63;;;;;;;-143.37;100.00;65745.06;5070424;28;20201;-74
2021/09/24 04:25:53;;;;;;;4.07;2.93;;;;;;;-143.37;100.00;65745.06;5071407;28;20225;-75
2021/09/24 04:28:20;;;;;;;5.07;2.90;;;;;;;-143.37;100.00;65745.06;5072141;28;20209;-74
2021/09/24 04:30:46;;;;;;;3.67;2.70;;;;;;;-143.37;100.00;65745.06;5070955;28;20241;-73
2021/09/24 04:33:13;;;;;;;5.07;2.97;;;;;;;-143.37;100.00;65745.06;5077938;28;20216;-73
2021/09/24 04:35:39;;;;;;;5.13;3.20;;;;;;;-143.37;100.00;65745.06;5091839;28;20319;-73
2021/09/24 04:38:06;;;;;;;4.17;2.70;;;;;;;-143.37;100.00;65745.06;5092412;28;20447;-76
2021/09/24 04:40:33;;;;;;;6.67;3.20;;;;;;;-143.37;100.00;65745.06;5107517;28;20292;-72
2021/09/24 04:42:59;;;;;;;3.77;2.57;;;;;;;-143.37;100.00;65745.06;5092102;28;20204;-73
2021/09/24 04:45:26;;;;;;;3.30;2.50;;;;;;;-143.37;100.00;65745.06;5091346;28;20303;-73
2021/09/24 04:47:53;;;;;;;4.60;2.90;;;;;;;-143.37;100.00;65745.06;5092165;28;20283;-74
2021/09/24 04:50:19;;;;;;;4.07;2.80;;;;;;;-143.37;100.00;65745.06;5091860;28;20207;-74
2021/09/24 04:52:46;;;;;;;4.40;2.77;;;;;;;-143.37;100.00;65745.06;5091825;28;20641;-73
2021/09/24 04:55:13;;;;;;;4.73;2.77;;;;;;;-143.37;100.00;65745.06;5090790;28;20833;-75
2021/09/24 04:57:40;;;;;;;3.93;3.00;;;;;;;-143.37;100.00;65745.06;5091701;28;20299;-74
2021/09/24 05:00:09;;;;;;;3.20;2.57;;;;;;;-143.37;100.00;65745.06;5091797;28;20627;-74
2021/09/24 05:02:35;;;;;;;6.47;3.07;;;;;;;-143.37;100.00;65745.06;5091653;28;20729;-78
2021/09/24 05:05:03;;;;;;;3.73;2.70;;;;;;;-143.37;100.00;65745.06;5082659;28;20277;-77
2021/09/24 05:07:29;;;;;;;4.17;2.70;;;;;;;-143.37;100.00;65745.06;5055516;28;20325;-77
2021/09/24 05:09:56;;;;;;;6.93;2.87;;;;;;;-143.37;100.00;65745.06;5060873;28;20245;-76
2021/09/24 05:12:22;;;;;;;6.80;3.00;;;;;;;-143.37;100.00;65745.06;5069678;28;20223;-77
2021/09/24 05:14:49;;;;;;;5.53;3.13;;;;;;;-143.37;100.00;65745.06;5071491;28;20221;-77
2021/09/24 05:17:16;;;;;;;4.67;2.90;;;;;;;-143.37;100.00;65745.06;5060791;28;20225;-77
2021/09/24 05:19:42;;;;;;;3.73;2.63;;;;;;;-143.37;100.00;65745.06;5060912;28;20281;-76
2021/09/24 05:22:09;;;;;;;5.17;2.97;;;;;;;-143.37;100.00;65745.06;5055937;28;20285;-77
2021/09/24 05:24:35;;;;;;;4.90;3.10;;;;;;;-143.37;100.00;65745.06;5065328;28;20613;-77
2021/09/24 05:27:02;;;;;;;6.63;3.10;;;;;;;-143.37;100.00;65745.06;5071284;28;20314;-77
2021/09/24 05:29:29;;;;;;;5.77;2.70;;;;;;;-143.37;100.00;65745.06;5071240;28;20205;-77
2021/09/24 05:31:56;;;;;;;4.10;2.83;;;;;;;-143.37;100.00;65745.06;5065454;28;20288;-75
2021/09/24 05:34:22;;;;;;;5.27;3.30;;;;;;;-143.37;100.00;65745.06;5082955;28;20230;-74
2021/09/24 05:36:49;;;;;;;6.43;3.10;;;;;;;-143.37;100.00;65745.06;5069560;28;20224;-74
2021/09/24 05:39:18;;;;;;;4.97;3.30;;;;;;;-143.37;100.00;65745.06;5064557;28;20231;-73
2021/09/24 05:41:44;;;;;;;3.67;2.57;;;;;;;-143.37;100.00;65745.06;5061511;28;20217;-75
2021/09/24 05:44:11;;;;;;;5.23;3.27;;;;;;;-143.37;100.00;65745.06;5070681;28;20209;-74
2021/09/24 05:46:39;;;;;;;6.50;2.73;;;;;;;-143.37;100.00;65745.06;5069669;28;20323;-75
2021/09/24 05:49:06;;;;;;;6.40;2.80;;;;;;;-143.37;100.00;65745.06;5070597;28;20212;-74
2021/09/24 05:51:32;;;;;;;6.33;3.23;;;;;;;-143.37;100.00;65745.06;5086612;28;20209;-75
2021/09/24 05:54:00;;;;;;;7.87;3.20;;;;;;;-143.37;100.00;65745.06;5070703;28;20256;-74
2021/09/24 05:56:27;;;;;;;7.03;3.07;;;;;;;-143.37;100.00;65745.06;5059343;28;20259;-73
2021/09/24 05:58:53;;;;;;;4.23;2.77;;;;;;;-143.37;100.00;65745.06;5089219;28;20204;-73
2021/09/24 06:01:20;;;;;;;7.47;3.47;;;;;;;-143.37;100.00;65745.06;5090523;28;20287;-73
2021/09/24 06:03:47;;;;;;;4.43;2.97;;;;;;;-143.37;100.00;65745.06;5090617;28;20212;-73
2021/09/24 06:06:13;;;;;;;7.57;3.33;;;;;;;-143.37;100.00;65745.06;5090828;28;20256;-73
2021/09/24 06:08:41;;;;;;;4.23;2.43;;;;;;;-143.37;100.00;65745.06;5093007;28;20680;-77
2021/09/24 06:11:08;;;;;;;5.90;2.90;;;;;;;-143.37;100.00;65745.06;5076182;28;20210;-78
2021/09/24 06:13:34;;;;;;;7.00;2.93;;;;;;;-143.37;100.00;65745.06;5068583;28;20307;-77
2021/09/24 06:16:01;;;;;;;5.00;2.47;;;;;;;-143.37;100.00;65745.06;5071364;28;20650;-79
2021/09/24 06:18:30;;;;;;;6.97;2.90;;;;;;;-143.37;100.00;65745.06;5066031;28;20234;-78
2021/09/24 06:20:58;;;;;;;4.17;2.73;;;;;;;-143.37;100.00;65745.06;5088069;28;20647;-77
2021/09/24 06:23:24;;;;;;;4.17;2.80;;;;;;;-143.37;100.00;65745.06;5075204;28;20240;-77
2021/09/24 06:25:52;;;;;;;5.93;3.03;;;;;;;-143.37;100.00;65745.06;5069482;28;20300;-77
2021/09/24 06:28:22;;;;;;;3.45;2.25;;;;;;;-143.37;100.00;65745.06;5059424;28;20229;-78
2021/09/24 06:30:51;;;;;;;3.85;2.40;;;;;;;-143.37;100.00;65745.06;5076401;28;20300;-77
2021/09/24 06:33:23;;;;;;;3.10;2.40;;;;;;;-143.37;100.00;65745.06;5084137;28;20244;-77
2021/09/24 06:35:50;;;;;;;2.88;2.22;;;;;;;-143.37;100.00;65745.06;5079298;28;20254;-76
2021/09/24 06:38:17;;;;;;;3.25;2.33;;;;;;;-143.37;100.00;65745.06;5096306;28;20204;-77
2021/09/24 06:40:43;;;;;;;4.45;2.45;;;;;;;-143.37;100.00;65745.06;5096346;28;20658;-77
2021/09/24 06:43:10;;;;;;;4.38;2.20;;;;;;;-143.37;100.00;65745.06;5095609;28;20295;-77
2021/09/24 06:45:37;;;;;;;3.75;2.38;;;;;;;-143.37;100.00;65745.06;5095843;28;20687;-76
2021/09/24 06:48:05;;;;;;;4.55;2.30;;;;;;;-143.37;100.00;65745.06;5098852;28;20201;-77
2021/09/24 06:50:34;;;;;;;2.97;2.50;;;;;;;-143.37;100.00;65745.06;5096205;28;20295;-77
2021/09/24 06:53:02;;;;;;;7.13;2.10;;;;;;;-143.37;100.00;65745.06;5096087;28;20208;-77
2021/09/24 06:55:29;;;;;;;2.60;2.10;;;;;;;-143.37;100.00;65745.06;5094100;28;20316;-78
2021/09/24 06:57:56;;;;;;;3.97;2.70;;;;;;;-143.37;100.00;65745.06;5094772;28;20201;-78
2021/09/24 07:00:24;;;;;;;4.95;2.20;;;;;;;-143.37;100.00;65745.06;5110135;28;20659;-76
2021/09/24 07:02:51;;;;;;;3.38;2.30;;;;;;;-143.37;100.00;65745.06;5093977;28;20287;-77
2021/09/24 07:05:17;;;;;;;7.45;2.50;;;;;;;-143.37;100.00;65745.06;5093121;28;20484;-77
2021/09/24 07:07:45;;;;;;;3.22;2.10;;;;;;;-143.37;100.00;65745.06;5093937;28;20211;-76
2021/09/24 07:10:12;;;;;;;6.20;1.90;;;;;;;-143.37;100.00;65745.06;5086767;28;20215;-76
2021/09/24 07:12:40;;;;;;;3.22;2.10;;;;;;;-143.37;100.00;65745.06;5071870;28;20254;-76
2021/09/24 07:15:07;;;;;;;3.50;2.35;;;;;;;-143.37;100.00;65745.06;5072592;28;20256;-76
2021/09/24 07:17:33;;;;;;;4.28;2.70;;;;;;;-143.37;100.00;65745.06;5071928;28;20256;-76
2021/09/24 07:20:01;;;;;;;3.38;2.53;;;;;;;-143.37;100.00;65745.06;5073108;28;20248;-79
2021/09/24 07:22:29;;;;;;;9.63;2.67;;;;;;;-143.37;100.00;65745.06;5073125;28;20693;-78
2021/09/24 07:24:56;;;;;;;4.75;3.03;;;;;;;-143.37;100.00;65745.06;5072208;28;20370;-78
2021/09/24 07:27:23;;;;;;;5.10;2.70;;;;;;;-143.37;100.00;65745.06;5070689;28;20312;-76
2021/09/24 07:29:50;;;;;;;4.78;3.05;;;;;;;-143.37;100.00;65745.06;5060437;28;20225;-77
2021/09/24 07:32:16;;;;;;;3.88;2.63;;;;;;;-143.37;100.00;65745.06;5069436;28;20223;-78
2021/09/24 07:34:43;;;;;;;3.50;3.00;;;;;;;-143.37;100.00;65745.06;5090450;28;20303;-77
2021/09/24 07:37:13;;;;;;;4.32;3.35;;;;;;;-143.37;100.00;65745.06;5092765;28;20229;-79
2021/09/24 07:39:40;;;;;;;4.35;2.90;;;;;;;-143.37;100.00;65745.06;5093758;28;20298;-80
2021/09/24 07:42:07;;;;;;;4.60;3.25;;;;;;;-143.37;100.00;65745.06;5092989;28;20263;-75
2021/09/24 07:44:34;;;;;;;3.80;2.90;;;;;;;-143.37;100.00;65745.06;5092453;28;20271;-74
2021/09/24 07:47:01;;;;;;;7.80;3.40;;;;;;;-143.37;100.00;65745.06;5093674;28;20311;-79
2021/09/24 07:49:28;;;;;;;4.45;2.88;;;;;;;-143.37;100.00;65745.06;5093931;28;20212;-76
2021/09/24 07:51:54;;;;;;;5.07;3.10;;;;;;;-143.37;100.00;65745.06;5092746;28;20643;-77
2021/09/24 07:54:21;;;;;;;5.25;3.22;;;;;;;-143.37;100.00;65745.06;5093810;28;20551;-76
2021/09/24 07:56:49;;;;;;;4.40;2.90;;;;;;;-143.37;100.00;65745.06;5093393;28;20244;-77
2021/09/24 07:59:16;;;;;;;5.47;3.17;;;;;;;-143.37;100.00;65745.06;5092920;28;20238;-76
2021/09/24 08:01:43;;;;;;;4.53;3.03;;;;;;;-143.37;100.00;65745.06;5087119;28;20678;-75
2021/09/24 08:04:10;;;;;;;5.45;2.92;;;;;;;-143.37;100.00;65745.06;5070718;28;20256;-74
2021/09/24 08:06:36;;;;;;;4.77;2.97;;;;;;;-143.37;100.00;65745.06;5067864;28;20239;-74
2021/09/24 08:09:03;;;;;;;4.22;2.83;;;;;;;-143.37;100.00;65745.06;5070663;28;20233;-75
2021/09/24 08:11:31;;;;;;;4.07;2.67;;;;;;;-143.37;100.00;65745.06;5072161;28;20227;-80
2021/09/24 08:13:58;;;;;;;5.77;3.30;;;;;;;-143.37;100.00;65745.06;5071176;28;20240;-75
2021/09/24 08:16:25;;;;;;;5.37;3.13;;;;;;;-143.37;100.00;65745.06;5071244;28;20233;-74
2021/09/24 08:18:51;;;;;;;4.77;3.47;;;;;;;-143.37;100.00;65745.06;5071982;28;20205;-73
2021/09/24 08:21:20;;;;;;;4.97;3.23;;;;;;;-143.37;100.00;65745.06;5069876;28;20247;-73
2021/09/24 08:23:47;;;;;;;4.53;2.77;;;;;;;-143.37;100.00;65745.06;5070736;28;20323;-74
2021/09/24 08:26:13;;;;;;;5.03;2.97;;;;;;;-143.37;100.00;65745.06;5070725;28;20229;-73
2021/09/24 08:28:40;;;;;;;3.97;2.77;;;;;;;-143.37;100.00;65745.06;5071273;28;20288;-75
2021/09/24 08:31:06;;;;;;;3.87;2.77;;;;;;;-143.37;100.00;65745.06;5071788;28;20304;-77
2021/09/24 08:33:33;;;;;;;4.43;3.30;;;;;;;-143.37;100.00;65745.06;5080439;28;20313;-81
2021/09/24 08:35:59;;;;;;;4.53;3.00;;;;;;;-143.37;100.00;65745.06;5092327;28;20315;-79
2021/09/24 08:38:26;;;;;;;5.17;3.03;;;;;;;-143.37;100.00;65745.06;5090822;28;20243;-78
2021/09/24 08:40:53;;;;;;;4.93;2.73;;;;;;;-143.37;100.00;65745.06;5090100;28;20669;-75
2021/09/24 08:43:19;;;;;;;4.40;2.53;;;;;;;-143.37;100.00;65745.06;5089728;28;20780;-74
2021/09/24 08:45:47;;;;;;;2.90;2.20;;;;;;;-143.37;100.00;65745.06;5089055;28;20315;-75
2021/09/24 08:48:15;;;;;;;4.10;2.83;;;;;;;-143.37;100.00;65745.06;5090691;28;20247;-74
2021/09/24 08:50:44;;;;;;;4.57;2.70;;;;;;;-143.37;100.00;65745.06;5089940;28;20208;-75
2021/09/24 08:53:16;;;;;;;4.85;2.85;;;;;;;-143.37;100.00;65745.06;5080913;28;20288;-78
2021/09/24 08:55:44;;;;;;;3.80;2.83;;;;;;;-143.37;100.00;65745.06;5073116;28;20720;-77
2021/09/24 08:58:12;;;;;;;4.90;3.07;;;;;;;-143.37;100.00;65745.06;5069860;28;20288;-76
2021/09/24 09:00:42;;;;;;;3.87;2.47;;;;;;;-143.37;100.00;65745.06;5069862;28;20251;-76
2021/09/24 09:03:14;;;;;;;3.90;2.73;;;;;;;-143.37;100.00;65745.06;5066562;28;20300;-76
2021/09/24 09:05:44;;;;;;;5.33;2.83;;;;;;;-143.37;100.00;65745.06;5068844;28;20342;-76
2021/09/24 09:08:28;;;;;;;6.43;2.30;;;;;;;-143.37;100.00;65745.06;5070746;28;20300;-75
2021/09/24 09:11:00;;;;;;;3.60;2.37;;;;;;;-143.37;100.00;65745.06;5069376;28;20284;-75
2021/09/24 09:13:27;;;;;;;5.17;2.50;;;;;;;-143.37;100.00;65745.06;5070171;28;20281;-76
2021/09/24 09:15:57;;;;;;;3.27;2.40;;;;;;;-143.37;100.00;65745.06;5070244;28;20256;-75
2021/09/24 09:18:25;;;;;;;3.80;2.50;;;;;;;-143.37;100.00;65745.06;5070639;28;20205;-75
2021/09/24 09:20:52;;;;;;;3.92;2.60;;;;;;;-143.37;100.00;65745.06;5070383;28;20284;-76
2021/09/24 09:23:21;;;;;;;4.50;2.57;;;;;;;-143.37;100.00;65745.06;5069772;28;20809;-76
2021/09/24 09:25:51;;;;;;;4.50;2.47;;;;;;;-143.37;100.00;65745.06;5069954;28;20256;-75
2021/09/24 09:28:41;;;;;;;3.60;2.10;;;;;;;-143.37;100.00;65745.06;5070363;28;20245;-77
2021/09/24 09:31:31;;;;;;;3.53;2.38;;;;;;;-143.37;100.00;65745.06;5070970;28;20205;-76
2021/09/24 09:34:00;;;;;;;3.45;2.28;;;;;;;-143.37;100.00;65745.06;5069378;28;20213;-77
2021/09/24 09:36:32;;;;;;;5.25;2.35;;;;;;;-143.37;100.00;65745.06;5069639;28;20308;-75
2021/09/24 09:38:59;;;;;;;5.18;2.20;;;;;;;-143.37;100.00;65745.06;5070925;28;20291;-76
2021/09/24 09:41:30;;;;;;;3.22;2.30;;;;;;;-143.37;100.00;65745.06;5070497;28;20296;-76
2021/09/24 09:43:59;;;;;;;4.32;2.55;;;;;;;-143.37;100.00;65745.06;5069489;28;20205;-76
2021/09/24 09:46:30;;;;;;;7.05;2.97;;;;;;;-143.37;100.00;65745.06;5068276;28;20737;-77
2021/09/24 09:49:07;;;;;;;4.72;2.38;;;;;;;-143.37;100.00;65745.06;5069904;28;20300;-77
2021/09/24 09:51:37;;;;;;;3.03;2.42;;;;;;;-143.37;100.00;65745.06;5069494;28;20241;-76
2021/09/24 09:54:06;;;;;;;5.75;2.55;;;;;;;-143.37;100.00;65745.06;5070212;28;20291;-76
2021/09/24 09:56:46;;;;;;;7.95;2.80;;;;;;;-143.37;100.00;65745.06;5079267;28;20299;-78
2021/09/24 09:59:23;;;;;;;4.70;2.65;;;;;;;-143.37;100.00;65745.06;5092797;28;20295;-76
2021/09/24 10:02:14;;;;;;;3.50;2.45;;;;;;;-143.37;100.00;65745.06;5094213;28;20273;-76
2021/09/24 10:04:42;;;;;;;4.10;2.90;;;;;;;-143.37;100.00;65745.06;5093410;28;20228;-76
2021/09/24 10:07:12;;;;;;;3.40;2.55;;;;;;;-143.37;100.00;65745.06;5094083;28;20259;-77
2021/09/24 10:09:38;;;;;;;3.70;2.53;;;;;;;-143.37;100.00;65745.06;5094409;28;20269;-76
2021/09/24 10:12:23;;;;;;;7.57;2.92;;;;;;;-143.37;100.00;65745.06;5094097;28;20295;-76
2021/09/24 10:14:51;;;;;;;3.22;2.58;;;;;;;-143.37;100.00;65745.06;5093240;28;20203;-78
2021/09/24 10:17:21;;;;;;;2.65;2.10;;;;;;;-143.37;100.00;65745.06;5094148;28;20224;-77
2021/09/24 10:19:50;;;;;;;5.60;2.08;;;;;;;-143.37;100.00;65745.06;5094088;28;20208;-76
2021/09/24 10:22:18;;;;;;;3.25;2.28;;;;;;;-143.37;100.00;65745.06;5094028;28;20539;-78
2021/09/24 10:24:44;;;;;;;2.70;1.90;;;;;;;-143.37;100.00;65745.06;5093085;28;20406;-79
2021/09/24 10:27:29;;;;;;;4.10;2.40;;;;;;;-143.37;100.00;65745.06;5093892;28;20259;-77
2021/09/24 10:30:09;;;;;;;3.25;2.35;;;;;;;-143.37;100.00;65745.06;5077593;28;20351;-76
2021/09/24 10:32:37;;;;;;;3.35;2.33;;;;;;;-143.37;100.00;65745.06;5074359;28;20300;-76
2021/09/24 10:35:10;;;;;;;5.95;2.17;;;;;;;-143.37;100.00;65745.06;5091688;28;20303;-76
2021/09/24 10:37:45;;;;;;;2.15;1.95;;;;;;;-143.37;100.00;65745.06;5092295;28;20216;-76
2021/09/24 10:40:26;;;;;;;2.20;2.00;;;;;;;-143.37;100.00;65745.06;5093866;28;20196;-78
2021/09/24 10:43:01;;;;;;;2.70;2.05;;;;;;;-143.37;100.00;65745.06;5093344;28;20312;-78
2021/09/24 10:45:35;;;;;;;4.72;2.38;;;;;;;-143.37;100.00;65745.06;5092984;28;20657;-76
2021/09/24 10:48:25;;;;;;;3.13;2.00;;;;;;;-143.37;100.00;65745.06;5093630;28;20246;-76
2021/09/24 10:51:00;;;;;;;3.33;1.83;;;;;;;-143.37;100.00;65745.06;5091855;28;20219;-76
2021/09/24 10:53:40;;;;;;;2.75;2.10;;;;;;;-143.37;100.00;65745.06;5091183;28;20707;-76
2021/09/24 10:56:09;;;;;;;6.28;2.38;;;;;;;-143.37;100.00;65745.06;5108411;28;20271;-78
2021/09/24 10:58:41;;;;;;;2.05;1.70;;;;;;;-143.37;100.00;65745.06;5093128;28;20208;-76
2021/09/24 11:01:28;;;;;;;3.45;2.15;;;;;;;-143.37;100.00;65745.06;5093092;28;20228;-76
2021/09/24 11:04:09;;;;;;;2.38;1.52;;;;;;;-143.37;100.00;65745.06;5092458;28;20273;-77
2021/09/24 11:06:44;;;;;;;1.83;1.45;;;;;;;-143.37;100.00;65745.06;5091947;28;20611;-78
2021/09/24 11:09:13;;;;;;;2.60;1.48;;;;;;;-143.37;100.00;65745.06;5092441;28;20235;-78
2021/09/24 11:11:43;;;;;;;2.20;1.35;;;;;;;-143.37;100.00;65745.06;5092621;28;20223;-77
2021/09/24 11:14:27;;;;;;;2.95;1.77;;;;;;;-143.37;100.00;65745.06;5092330;28;20227;-76
2021/09/24 11:16:54;;;;;;;2.85;2.10;;;;;;;-143.37;100.00;65745.06;5092486;28;20311;-77
2021/09/24 11:19:30;;;;;;;2.13;1.52;;;;;;;-143.37;100.00;65745.06;5092484;28;20680;-77
2021/09/24 11:21:59;;;;;;;4.63;1.50;;;;;;;-143.37;100.00;65745.06;5091230;28;20293;-76
2021/09/24 11:24:35;;;;;;;2.05;1.60;;;;;;;-143.37;100.00;65745.06;5091976;28;20766;-77
2021/09/24 11:27:11;;;;;;;4.80;1.75;;;;;;;-143.37;100.00;65745.06;5091837;28;20228;-77
2021/09/24 11:29:59;;;;;;;4.43;1.48;;;;;;;-143.37;100.00;65745.06;5078375;28;20287;-77
2021/09/24 11:32:37;;;;;;;2.58;1.77;;;;;;;-143.37;100.00;65745.06;5071814;28;20263;-77
2021/09/24 11:35:08;;;;;;;3.17;2.10;;;;;;;-143.37;100.00;65745.06;5050889;28;20400;-77
2021/09/24 11:37:37;;;;;;;3.95;1.70;;;;;;;-143.37;100.00;65745.06;5051849;28;20638;-77
2021/09/24 11:40:04;;;;;;;1.95;1.70;;;;;;;-143.37;100.00;65745.06;5051792;28;20237;-76
2021/09/24 11:42:34;;;;;;;2.50;1.85;;;;;;;-143.37;100.00;65745.06;5067076;28;20209;-77
2021/09/24 11:45:03;;;;;;;2.35;1.45;;;;;;;-143.37;100.00;65745.06;5050329;28;20229;-78
2021/09/24 11:47:33;;;;;;;2.42;1.60;;;;;;;-143.37;100.00;65745.06;5057346;28;20211;-77